sensor_id;sensor_type;location;lat;lon;timestamp;P1;durP1;ratioP1;P2;durP2;ratioP2
2944;SDS011;1482;51.398;7.128;2023-08-21T00:01:05;4.20;;;3.43;;
2944;SDS011;1482;51.398;7.128;2023-08-21T00:03:31;7.87;;;3.83;;
2944;SDS011;1482;51.398;7.128;2023-08-21T00:05:56;7.37;;;3.40;;
2944;SDS011;1482;51.398;7.128;2023-08-21T00:08:22;13.40;;;4.83;;
2944;SDS011;1482;51.398;7.128;2023-08-21T00:10:48;9.53;;;4.77;;
2944;SDS011;1482;51.398;7.128;2023-08-21T00:13:14;9.63;;;4.60;;
2944;SDS011;1482;51.398;7.128;2023-08-21T00:15:39;8.37;;;4.20;;
2944;SDS011;1482;51.398;7.128;2023-08-21T00:18:05;8.57;;;4.10;;
2944;SDS011;1482;51.398;7.128;2023-08-21T00:20:31;7.03;;;3.97;;
2944;SDS011;1482;51.398;7.128;2023-08-21T00:22:57;11.40;;;4.00;;
2944;SDS011;1482;51.398;7.128;2023-08-21T00:25:22;8.37;;;4.50;;
2944;SDS011;1482;51.398;7.128;2023-08-21T00:27:48;7.93;;;4.40;;
2944;SDS011;1482;51.398;7.128;2023-08-21T00:30:14;7.77;;;4.80;;
2944;SDS011;1482;51.398;7.128;2023-08-21T00:32:40;5.33;;;3.93;;
2944;SDS011;1482;51.398;7.128;2023-08-21T00:35:06;10.87;;;4.97;;
2944;SDS011;1482;51.398;7.128;2023-08-21T00:37:31;6.83;;;4.87;;
2944;SDS011;1482;51.398;7.128;2023-08-21T00:39:57;8.30;;;4.80;;
2944;SDS011;1482;51.398;7.128;2023-08-21T00:42:22;7.67;;;4.47;;
2944;SDS011;1482;51.398;7.128;2023-08-21T00:44:48;11.07;;;5.47;;
2944;SDS011;1482;51.398;7.128;2023-08-21T00:47:14;5.10;;;4.67;;
2944;SDS011;1482;51.398;7.128;2023-08-21T00:49:40;11.43;;;6.60;;
2944;SDS011;1482;51.398;7.128;2023-08-21T00:52:06;7.10;;;4.90;;
2944;SDS011;1482;51.398;7.128;2023-08-21T00:54:35;9.37;;;4.80;;
2944;SDS011;1482;51.398;7.128;2023-08-21T01:03:52;8.30;;;5.30;;
2944;SDS011;1482;51.398;7.128;2023-08-21T01:06:18;9.90;;;4.30;;
2944;SDS011;1482;51.398;7.128;2023-08-21T01:09:00;7.60;;;4.70;;
2944;SDS011;1482;51.398;7.128;2023-08-21T01:14:27;7.77;;;4.20;;
2944;SDS011;1482;51.398;7.128;2023-08-21T01:17:02;7.93;;;4.50;;
2944;SDS011;1482;51.398;7.128;2023-08-21T01:22:02;8.77;;;4.40;;
2944;SDS011;1482;51.398;7.128;2023-08-21T01:24:28;12.43;;;4.60;;
2944;SDS011;1482;51.398;7.128;2023-08-21T01:26:54;6.37;;;5.30;;
2944;SDS011;1482;51.398;7.128;2023-08-21T01:29:20;8.33;;;5.47;;
2944;SDS011;1482;51.398;7.128;2023-08-21T01:31:47;6.87;;;4.97;;
2944;SDS011;1482;51.398;7.128;2023-08-21T01:34:31;14.30;;;6.07;;
2944;SDS011;1482;51.398;7.128;2023-08-21T01:36:58;9.07;;;5.00;;
2944;SDS011;1482;51.398;7.128;2023-08-21T01:39:25;8.10;;;4.50;;
2944;SDS011;1482;51.398;7.128;2023-08-21T01:41:51;7.53;;;4.40;;
2944;SDS011;1482;51.398;7.128;2023-08-21T01:44:17;7.37;;;4.90;;
2944;SDS011;1482;51.398;7.128;2023-08-21T01:46:42;6.93;;;4.47;;
2944;SDS011;1482;51.398;7.128;2023-08-21T01:49:08;5.93;;;5.20;;
2944;SDS011;1482;51.398;7.128;2023-08-21T01:51:33;6.03;;;3.97;;
2944;SDS011;1482;51.398;7.128;2023-08-21T01:53:59;6.03;;;4.30;;
2944;SDS011;1482;51.398;7.128;2023-08-21T01:56:24;5.40;;;3.73;;
2944;SDS011;1482;51.398;7.128;2023-08-21T01:58:50;10.33;;;5.70;;
2944;SDS011;1482;51.398;7.128;2023-08-21T02:01:15;8.40;;;4.70;;
2944;SDS011;1482;51.398;7.128;2023-08-21T02:03:42;5.23;;;3.77;;
2944;SDS011;1482;51.398;7.128;2023-08-21T02:06:08;5.47;;;3.43;;
2944;SDS011;1482;51.398;7.128;2023-08-21T02:08:34;7.47;;;4.17;;
2944;SDS011;1482;51.398;7.128;2023-08-21T02:11:00;10.70;;;4.80;;
2944;SDS011;1482;51.398;7.128;2023-08-21T02:13:25;12.27;;;4.73;;
2944;SDS011;1482;51.398;7.128;2023-08-21T02:15:51;11.10;;;5.07;;
2944;SDS011;1482;51.398;7.128;2023-08-21T02:18:16;6.13;;;3.80;;
2944;SDS011;1482;51.398;7.128;2023-08-21T02:20:42;11.20;;;4.90;;
2944;SDS011;1482;51.398;7.128;2023-08-21T02:23:08;6.13;;;4.50;;
2944;SDS011;1482;51.398;7.128;2023-08-21T02:25:33;13.80;;;4.43;;
2944;SDS011;1482;51.398;7.128;2023-08-21T02:27:59;11.50;;;3.90;;
2944;SDS011;1482;51.398;7.128;2023-08-21T02:30:27;8.20;;;5.27;;
2944;SDS011;1482;51.398;7.128;2023-08-21T02:32:53;11.57;;;4.57;;
2944;SDS011;1482;51.398;7.128;2023-08-21T02:35:19;10.93;;;4.47;;
2944;SDS011;1482;51.398;7.128;2023-08-21T02:37:45;10.53;;;4.40;;
2944;SDS011;1482;51.398;7.128;2023-08-21T02:40:10;10.10;;;5.00;;
2944;SDS011;1482;51.398;7.128;2023-08-21T02:42:36;7.60;;;4.67;;
2944;SDS011;1482;51.398;7.128;2023-08-21T02:45:02;5.30;;;4.50;;
2944;SDS011;1482;51.398;7.128;2023-08-21T02:47:32;6.47;;;4.17;;
2944;SDS011;1482;51.398;7.128;2023-08-21T02:50:08;9.97;;;5.50;;
2944;SDS011;1482;51.398;7.128;2023-08-21T02:52:34;9.00;;;4.10;;
2944;SDS011;1482;51.398;7.128;2023-08-21T02:55:01;10.63;;;4.90;;
2944;SDS011;1482;51.398;7.128;2023-08-21T02:57:27;8.53;;;4.40;;
2944;SDS011;1482;51.398;7.128;2023-08-21T02:59:53;6.40;;;4.00;;
2944;SDS011;1482;51.398;7.128;2023-08-21T03:02:19;12.40;;;5.00;;
2944;SDS011;1482;51.398;7.128;2023-08-21T03:04:45;6.60;;;4.03;;
2944;SDS011;1482;51.398;7.128;2023-08-21T03:07:11;7.60;;;4.40;;
2944;SDS011;1482;51.398;7.128;2023-08-21T03:09:37;10.13;;;6.37;;
2944;SDS011;1482;51.398;7.128;2023-08-21T03:12:03;8.70;;;4.57;;
2944;SDS011;1482;51.398;7.128;2023-08-21T03:14:29;12.00;;;5.47;;
2944;SDS011;1482;51.398;7.128;2023-08-21T03:16:55;19.10;;;5.13;;
2944;SDS011;1482;51.398;7.128;2023-08-21T03:19:20;8.03;;;6.13;;
2944;SDS011;1482;51.398;7.128;2023-08-21T03:21:46;9.53;;;6.10;;
2944;SDS011;1482;51.398;7.128;2023-08-21T03:24:11;8.00;;;5.40;;
2944;SDS011;1482;51.398;7.128;2023-08-21T03:26:37;5.70;;;4.97;;
2944;SDS011;1482;51.398;7.128;2023-08-21T03:29:02;7.57;;;5.97;;
2944;SDS011;1482;51.398;7.128;2023-08-21T03:31:29;8.50;;;4.93;;
2944;SDS011;1482;51.398;7.128;2023-08-21T03:33:55;16.17;;;6.43;;
2944;SDS011;1482;51.398;7.128;2023-08-21T03:36:20;7.80;;;5.67;;
2944;SDS011;1482;51.398;7.128;2023-08-21T03:38:47;8.50;;;5.10;;
2944;SDS011;1482;51.398;7.128;2023-08-21T03:41:13;8.33;;;5.17;;
2944;SDS011;1482;51.398;7.128;2023-08-21T03:43:40;6.93;;;5.73;;
2944;SDS011;1482;51.398;7.128;2023-08-21T03:46:05;8.20;;;5.47;;
2944;SDS011;1482;51.398;7.128;2023-08-21T03:48:31;11.00;;;6.10;;
2944;SDS011;1482;51.398;7.128;2023-08-21T03:50:56;7.97;;;5.60;;
2944;SDS011;1482;51.398;7.128;2023-08-21T03:53:22;8.47;;;7.13;;
2944;SDS011;1482;51.398;7.128;2023-08-21T03:55:47;9.10;;;4.67;;
2944;SDS011;1482;51.398;7.128;2023-08-21T03:58:13;9.03;;;5.80;;
2944;SDS011;1482;51.398;7.128;2023-08-21T04:00:39;7.13;;;5.50;;
2944;SDS011;1482;51.398;7.128;2023-08-21T04:03:05;12.67;;;5.73;;
2944;SDS011;1482;51.398;7.128;2023-08-21T04:05:30;10.60;;;6.93;;
2944;SDS011;1482;51.398;7.128;2023-08-21T04:07:56;16.73;;;7.33;;
2944;SDS011;1482;51.398;7.128;2023-08-21T04:10:21;10.37;;;5.80;;
2944;SDS011;1482;51.398;7.128;2023-08-21T04:12:47;14.80;;;6.63;;
2944;SDS011;1482;51.398;7.128;2023-08-21T04:15:12;12.30;;;6.50;;
2944;SDS011;1482;51.398;7.128;2023-08-21T04:17:38;13.50;;;6.93;;
2944;SDS011;1482;51.398;7.128;2023-08-21T04:20:04;14.63;;;6.70;;
2944;SDS011;1482;51.398;7.128;2023-08-21T04:22:30;9.83;;;6.77;;
2944;SDS011;1482;51.398;7.128;2023-08-21T04:24:55;8.60;;;6.43;;
2944;SDS011;1482;51.398;7.128;2023-08-21T04:27:21;12.73;;;7.43;;
2944;SDS011;1482;51.398;7.128;2023-08-21T04:29:46;8.93;;;6.00;;
2944;SDS011;1482;51.398;7.128;2023-08-21T04:32:12;6.70;;;6.00;;
2944;SDS011;1482;51.398;7.128;2023-08-21T04:34:37;9.77;;;5.67;;
2944;SDS011;1482;51.398;7.128;2023-08-21T04:37:03;10.73;;;6.23;;
2944;SDS011;1482;51.398;7.128;2023-08-21T04:39:29;10.90;;;7.13;;
2944;SDS011;1482;51.398;7.128;2023-08-21T04:41:55;9.20;;;7.10;;
2944;SDS011;1482;51.398;7.128;2023-08-21T04:44:21;13.23;;;6.00;;
2944;SDS011;1482;51.398;7.128;2023-08-21T04:46:47;10.00;;;5.27;;
2944;SDS011;1482;51.398;7.128;2023-08-21T04:49:13;7.57;;;5.30;;
2944;SDS011;1482;51.398;7.128;2023-08-21T04:51:39;14.53;;;6.13;;
2944;SDS011;1482;51.398;7.128;2023-08-21T04:54:04;7.80;;;5.57;;
2944;SDS011;1482;51.398;7.128;2023-08-21T04:56:30;5.37;;;4.90;;
2944;SDS011;1482;51.398;7.128;2023-08-21T04:58:55;7.93;;;5.70;;
2944;SDS011;1482;51.398;7.128;2023-08-21T05:01:21;7.23;;;5.60;;
2944;SDS011;1482;51.398;7.128;2023-08-21T05:03:46;8.73;;;6.00;;
2944;SDS011;1482;51.398;7.128;2023-08-21T05:06:12;13.33;;;5.87;;
2944;SDS011;1482;51.398;7.128;2023-08-21T05:08:37;11.43;;;5.93;;
2944;SDS011;1482;51.398;7.128;2023-08-21T05:11:03;9.97;;;4.43;;
2944;SDS011;1482;51.398;7.128;2023-08-21T05:13:29;11.70;;;4.77;;
2944;SDS011;1482;51.398;7.128;2023-08-21T05:15:55;8.57;;;4.77;;
2944;SDS011;1482;51.398;7.128;2023-08-21T05:18:22;5.87;;;4.40;;
2944;SDS011;1482;51.398;7.128;2023-08-21T05:20:48;8.10;;;4.17;;
2944;SDS011;1482;51.398;7.128;2023-08-21T05:23:15;7.33;;;4.83;;
2944;SDS011;1482;51.398;7.128;2023-08-21T05:25:42;8.13;;;5.27;;
2944;SDS011;1482;51.398;7.128;2023-08-21T05:28:08;7.03;;;5.27;;
2944;SDS011;1482;51.398;7.128;2023-08-21T05:30:35;12.80;;;5.40;;
2944;SDS011;1482;51.398;7.128;2023-08-21T05:33:01;6.07;;;5.53;;
2944;SDS011;1482;51.398;7.128;2023-08-21T05:35:27;11.13;;;5.70;;
2944;SDS011;1482;51.398;7.128;2023-08-21T05:37:52;5.87;;;4.30;;
2944;SDS011;1482;51.398;7.128;2023-08-21T05:40:18;9.00;;;3.13;;
2944;SDS011;1482;51.398;7.128;2023-08-21T05:42:44;6.30;;;4.67;;
2944;SDS011;1482;51.398;7.128;2023-08-21T05:45:10;6.03;;;4.43;;
2944;SDS011;1482;51.398;7.128;2023-08-21T05:47:35;7.77;;;5.73;;
2944;SDS011;1482;51.398;7.128;2023-08-21T05:50:01;4.70;;;4.20;;
2944;SDS011;1482;51.398;7.128;2023-08-21T05:52:27;6.63;;;4.40;;
2944;SDS011;1482;51.398;7.128;2023-08-21T05:54:52;12.83;;;4.20;;
2944;SDS011;1482;51.398;7.128;2023-08-21T05:57:18;5.07;;;4.57;;
2944;SDS011;1482;51.398;7.128;2023-08-21T05:59:44;6.90;;;3.73;;
2944;SDS011;1482;51.398;7.128;2023-08-21T06:02:11;7.90;;;3.70;;
2944;SDS011;1482;51.398;7.128;2023-08-21T06:04:40;8.70;;;4.53;;
2944;SDS011;1482;51.398;7.128;2023-08-21T06:07:07;9.17;;;4.20;;
2944;SDS011;1482;51.398;7.128;2023-08-21T06:09:33;6.40;;;3.67;;
2944;SDS011;1482;51.398;7.128;2023-08-21T06:11:59;4.10;;;3.70;;
2944;SDS011;1482;51.398;7.128;2023-08-21T06:14:28;12.53;;;4.90;;
2944;SDS011;1482;51.398;7.128;2023-08-21T06:16:57;5.07;;;4.50;;
2944;SDS011;1482;51.398;7.128;2023-08-21T06:19:24;6.80;;;4.70;;
2944;SDS011;1482;51.398;7.128;2023-08-21T06:21:49;9.37;;;5.50;;
2944;SDS011;1482;51.398;7.128;2023-08-21T06:24:15;7.37;;;5.60;;
2944;SDS011;1482;51.398;7.128;2023-08-21T06:26:41;6.17;;;5.70;;
2944;SDS011;1482;51.398;7.128;2023-08-21T06:29:06;7.50;;;6.80;;
2944;SDS011;1482;51.398;7.128;2023-08-21T06:31:32;6.73;;;3.50;;
2944;SDS011;1482;51.398;7.128;2023-08-21T06:33:57;5.33;;;4.20;;
2944;SDS011;1482;51.398;7.128;2023-08-21T06:36:23;7.87;;;4.83;;
2944;SDS011;1482;51.398;7.128;2023-08-21T06:38:48;4.87;;;4.23;;
2944;SDS011;1482;51.398;7.128;2023-08-21T06:41:14;5.90;;;5.37;;
2944;SDS011;1482;51.398;7.128;2023-08-21T06:43:39;6.80;;;4.80;;
2944;SDS011;1482;51.398;7.128;2023-08-21T06:46:06;5.30;;;4.80;;
2944;SDS011;1482;51.398;7.128;2023-08-21T06:48:38;5.40;;;4.60;;
2944;SDS011;1482;51.398;7.128;2023-08-21T06:51:08;5.90;;;4.50;;
2944;SDS011;1482;51.398;7.128;2023-08-21T06:53:34;7.83;;;4.50;;
2944;SDS011;1482;51.398;7.128;2023-08-21T06:56:00;8.90;;;4.27;;
2944;SDS011;1482;51.398;7.128;2023-08-21T06:58:25;4.97;;;3.97;;
2944;SDS011;1482;51.398;7.128;2023-08-21T07:00:53;6.37;;;5.80;;
2944;SDS011;1482;51.398;7.128;2023-08-21T07:03:19;5.50;;;5.00;;
2944;SDS011;1482;51.398;7.128;2023-08-21T07:05:54;10.17;;;4.90;;
2944;SDS011;1482;51.398;7.128;2023-08-21T07:08:21;11.27;;;5.37;;
2944;SDS011;1482;51.398;7.128;2023-08-21T07:10:47;12.67;;;5.63;;
2944;SDS011;1482;51.398;7.128;2023-08-21T07:13:13;8.23;;;5.23;;
2944;SDS011;1482;51.398;7.128;2023-08-21T07:15:38;12.33;;;4.83;;
2944;SDS011;1482;51.398;7.128;2023-08-21T07:18:04;6.67;;;4.13;;
2944;SDS011;1482;51.398;7.128;2023-08-21T07:20:29;6.93;;;4.30;;
2944;SDS011;1482;51.398;7.128;2023-08-21T07:22:55;12.37;;;4.27;;
2944;SDS011;1482;51.398;7.128;2023-08-21T07:25:20;4.43;;;4.03;;
2944;SDS011;1482;51.398;7.128;2023-08-21T07:27:46;6.33;;;3.90;;
2944;SDS011;1482;51.398;7.128;2023-08-21T07:30:11;8.80;;;4.33;;
2944;SDS011;1482;51.398;7.128;2023-08-21T07:32:38;6.40;;;3.93;;
2944;SDS011;1482;51.398;7.128;2023-08-21T07:35:04;11.00;;;6.00;;
2944;SDS011;1482;51.398;7.128;2023-08-21T07:37:30;6.20;;;4.43;;
2944;SDS011;1482;51.398;7.128;2023-08-21T07:39:56;9.17;;;4.97;;
2944;SDS011;1482;51.398;7.128;2023-08-21T07:42:22;4.93;;;4.40;;
2944;SDS011;1482;51.398;7.128;2023-08-21T07:44:48;8.80;;;4.43;;
2944;SDS011;1482;51.398;7.128;2023-08-21T07:47:14;6.13;;;3.80;;
2944;SDS011;1482;51.398;7.128;2023-08-21T07:49:39;8.77;;;4.60;;
2944;SDS011;1482;51.398;7.128;2023-08-21T07:52:05;7.50;;;4.20;;
2944;SDS011;1482;51.398;7.128;2023-08-21T07:54:30;6.10;;;4.00;;
2944;SDS011;1482;51.398;7.128;2023-08-21T07:56:56;5.27;;;4.47;;
2944;SDS011;1482;51.398;7.128;2023-08-21T07:59:21;5.60;;;3.73;;
2944;SDS011;1482;51.398;7.128;2023-08-21T08:01:47;8.57;;;4.50;;
2944;SDS011;1482;51.398;7.128;2023-08-21T08:04:13;6.20;;;4.00;;
2944;SDS011;1482;51.398;7.128;2023-08-21T08:06:38;5.80;;;4.30;;
2944;SDS011;1482;51.398;7.128;2023-08-21T08:09:04;7.53;;;4.00;;
2944;SDS011;1482;51.398;7.128;2023-08-21T08:11:29;7.50;;;3.90;;
2944;SDS011;1482;51.398;7.128;2023-08-21T08:13:55;5.17;;;3.60;;
2944;SDS011;1482;51.398;7.128;2023-08-21T08:16:21;5.70;;;3.63;;
2944;SDS011;1482;51.398;7.128;2023-08-21T08:18:46;5.00;;;4.00;;
2944;SDS011;1482;51.398;7.128;2023-08-21T08:21:12;4.60;;;3.10;;
2944;SDS011;1482;51.398;7.128;2023-08-21T08:23:38;6.60;;;3.47;;
2944;SDS011;1482;51.398;7.128;2023-08-21T08:26:03;6.60;;;3.80;;
2944;SDS011;1482;51.398;7.128;2023-08-21T08:28:29;8.37;;;7.60;;
2944;SDS011;1482;51.398;7.128;2023-08-21T08:30:55;5.23;;;3.13;;
2944;SDS011;1482;51.398;7.128;2023-08-21T08:33:20;11.97;;;3.80;;
2944;SDS011;1482;51.398;7.128;2023-08-21T08:35:46;11.80;;;3.90;;
2944;SDS011;1482;51.398;7.128;2023-08-21T08:38:11;6.13;;;3.27;;
2944;SDS011;1482;51.398;7.128;2023-08-21T08:40:37;4.30;;;3.23;;
2944;SDS011;1482;51.398;7.128;2023-08-21T08:43:08;10.10;;;3.37;;
2944;SDS011;1482;51.398;7.128;2023-08-21T08:45:35;7.27;;;5.37;;
2944;SDS011;1482;51.398;7.128;2023-08-21T08:48:02;5.63;;;5.23;;
2944;SDS011;1482;51.398;7.128;2023-08-21T08:50:29;7.90;;;6.30;;
2944;SDS011;1482;51.398;7.128;2023-08-21T08:52:56;7.27;;;3.80;;
2944;SDS011;1482;51.398;7.128;2023-08-21T08:55:23;8.43;;;3.60;;
2944;SDS011;1482;51.398;7.128;2023-08-21T08:57:49;5.57;;;3.90;;
2944;SDS011;1482;51.398;7.128;2023-08-21T09:00:15;7.83;;;3.03;;
2944;SDS011;1482;51.398;7.128;2023-08-21T09:02:41;9.40;;;3.50;;
2944;SDS011;1482;51.398;7.128;2023-08-21T09:05:06;4.43;;;3.50;;
2944;SDS011;1482;51.398;7.128;2023-08-21T09:07:33;11.50;;;3.93;;
2944;SDS011;1482;51.398;7.128;2023-08-21T09:09:59;7.27;;;3.80;;
2944;SDS011;1482;51.398;7.128;2023-08-21T09:12:25;7.00;;;4.80;;
2944;SDS011;1482;51.398;7.128;2023-08-21T09:14:51;13.70;;;4.90;;
2944;SDS011;1482;51.398;7.128;2023-08-21T09:17:17;11.27;;;6.03;;
2944;SDS011;1482;51.398;7.128;2023-08-21T09:19:43;6.30;;;4.63;;
2944;SDS011;1482;51.398;7.128;2023-08-21T09:22:12;10.83;;;3.77;;
2944;SDS011;1482;51.398;7.128;2023-08-21T09:24:59;11.27;;;4.30;;
2944;SDS011;1482;51.398;7.128;2023-08-21T09:27:31;12.10;;;4.10;;
2944;SDS011;1482;51.398;7.128;2023-08-21T09:29:58;7.33;;;3.30;;
2944;SDS011;1482;51.398;7.128;2023-08-21T09:32:25;6.17;;;3.47;;
2944;SDS011;1482;51.398;7.128;2023-08-21T09:34:50;9.53;;;4.30;;
2944;SDS011;1482;51.398;7.128;2023-08-21T09:37:16;9.30;;;4.10;;
2944;SDS011;1482;51.398;7.128;2023-08-21T09:39:42;6.80;;;3.70;;
2944;SDS011;1482;51.398;7.128;2023-08-21T09:42:09;6.63;;;4.10;;
2944;SDS011;1482;51.398;7.128;2023-08-21T09:44:35;7.53;;;4.93;;
2944;SDS011;1482;51.398;7.128;2023-08-21T09:47:12;11.43;;;4.30;;
2944;SDS011;1482;51.398;7.128;2023-08-21T09:49:38;7.93;;;4.43;;
2944;SDS011;1482;51.398;7.128;2023-08-21T09:52:05;6.47;;;4.00;;
2944;SDS011;1482;51.398;7.128;2023-08-21T09:54:34;4.87;;;3.60;;
2944;SDS011;1482;51.398;7.128;2023-08-21T09:57:03;4.37;;;3.50;;
2944;SDS011;1482;51.398;7.128;2023-08-21T09:59:33;3.47;;;2.90;;
2944;SDS011;1482;51.398;7.128;2023-08-21T10:01:59;8.30;;;3.17;;
2944;SDS011;1482;51.398;7.128;2023-08-21T10:04:28;12.03;;;3.50;;
2944;SDS011;1482;51.398;7.128;2023-08-21T10:06:56;6.10;;;3.80;;
2944;SDS011;1482;51.398;7.128;2023-08-21T10:09:23;13.00;;;3.83;;
2944;SDS011;1482;51.398;7.128;2023-08-21T10:11:50;5.97;;;4.60;;
2944;SDS011;1482;51.398;7.128;2023-08-21T10:14:18;12.47;;;5.00;;
2944;SDS011;1482;51.398;7.128;2023-08-21T10:16:46;8.63;;;4.10;;
2944;SDS011;1482;51.398;7.128;2023-08-21T10:19:14;3.33;;;3.03;;
2944;SDS011;1482;51.398;7.128;2023-08-21T10:21:39;4.27;;;3.20;;
2944;SDS011;1482;51.398;7.128;2023-08-21T10:24:05;7.27;;;4.20;;
2944;SDS011;1482;51.398;7.128;2023-08-21T10:26:31;5.00;;;4.07;;
2944;SDS011;1482;51.398;7.128;2023-08-21T10:29:02;8.50;;;3.70;;
2944;SDS011;1482;51.398;7.128;2023-08-21T10:31:38;7.10;;;3.70;;
2944;SDS011;1482;51.398;7.128;2023-08-21T10:34:09;7.47;;;4.43;;
2944;SDS011;1482;51.398;7.128;2023-08-21T10:41:55;7.73;;;5.60;;
2944;SDS011;1482;51.398;7.128;2023-08-21T10:49:40;8.63;;;4.57;;
2944;SDS011;1482;51.398;7.128;2023-08-21T10:52:06;6.00;;;4.50;;
2944;SDS011;1482;51.398;7.128;2023-08-21T10:54:46;6.40;;;4.67;;
2944;SDS011;1482;51.398;7.128;2023-08-21T10:57:13;13.10;;;4.10;;
2944;SDS011;1482;51.398;7.128;2023-08-21T10:59:48;5.30;;;3.57;;
2944;SDS011;1482;51.398;7.128;2023-08-21T11:02:18;6.03;;;3.53;;
2944;SDS011;1482;51.398;7.128;2023-08-21T11:04:44;6.13;;;4.37;;
2944;SDS011;1482;51.398;7.128;2023-08-21T11:07:10;8.30;;;4.30;;
2944;SDS011;1482;51.398;7.128;2023-08-21T11:09:37;11.77;;;4.03;;
2944;SDS011;1482;51.398;7.128;2023-08-21T11:12:09;6.20;;;4.30;;
2944;SDS011;1482;51.398;7.128;2023-08-21T11:14:39;9.40;;;4.00;;
2944;SDS011;1482;51.398;7.128;2023-08-21T11:17:05;9.80;;;3.60;;
2944;SDS011;1482;51.398;7.128;2023-08-21T11:19:32;6.37;;;3.47;;
2944;SDS011;1482;51.398;7.128;2023-08-21T11:22:01;11.23;;;4.60;;
2944;SDS011;1482;51.398;7.128;2023-08-21T11:24:39;6.30;;;3.33;;
2944;SDS011;1482;51.398;7.128;2023-08-21T11:27:06;9.53;;;4.33;;
2944;SDS011;1482;51.398;7.128;2023-08-21T11:29:36;5.23;;;3.77;;
2944;SDS011;1482;51.398;7.128;2023-08-21T11:32:12;5.33;;;3.87;;
2944;SDS011;1482;51.398;7.128;2023-08-21T11:34:57;6.40;;;3.90;;
2944;SDS011;1482;51.398;7.128;2023-08-21T11:37:24;7.60;;;3.47;;
2944;SDS011;1482;51.398;7.128;2023-08-21T11:39:51;7.10;;;5.47;;
2944;SDS011;1482;51.398;7.128;2023-08-21T11:42:18;6.20;;;4.07;;
2944;SDS011;1482;51.398;7.128;2023-08-21T11:44:49;7.13;;;4.27;;
2944;SDS011;1482;51.398;7.128;2023-08-21T11:47:17;8.73;;;4.27;;
2944;SDS011;1482;51.398;7.128;2023-08-21T11:49:45;5.10;;;4.30;;
2944;SDS011;1482;51.398;7.128;2023-08-21T11:52:17;6.43;;;5.00;;
2944;SDS011;1482;51.398;7.128;2023-08-21T11:54:50;7.13;;;3.43;;
2944;SDS011;1482;51.398;7.128;2023-08-21T11:57:17;4.10;;;3.50;;
2944;SDS011;1482;51.398;7.128;2023-08-21T11:59:43;5.60;;;3.20;;
2944;SDS011;1482;51.398;7.128;2023-08-21T12:02:33;4.20;;;3.20;;
2944;SDS011;1482;51.398;7.128;2023-08-21T12:05:05;4.83;;;2.97;;
2944;SDS011;1482;51.398;7.128;2023-08-21T12:07:39;7.20;;;3.40;;
2944;SDS011;1482;51.398;7.128;2023-08-21T12:10:05;5.20;;;3.00;;
2944;SDS011;1482;51.398;7.128;2023-08-21T12:12:31;4.23;;;2.40;;
2944;SDS011;1482;51.398;7.128;2023-08-21T12:14:56;9.33;;;3.50;;
2944;SDS011;1482;51.398;7.128;2023-08-21T12:17:22;3.97;;;2.43;;
2944;SDS011;1482;51.398;7.128;2023-08-21T12:19:47;7.50;;;3.20;;
2944;SDS011;1482;51.398;7.128;2023-08-21T12:22:13;5.67;;;2.83;;
2944;SDS011;1482;51.398;7.128;2023-08-21T12:24:39;3.50;;;2.50;;
2944;SDS011;1482;51.398;7.128;2023-08-21T12:27:06;4.43;;;2.43;;
2944;SDS011;1482;51.398;7.128;2023-08-21T12:29:31;5.50;;;2.97;;
2944;SDS011;1482;51.398;7.128;2023-08-21T12:31:57;4.83;;;2.60;;
2944;SDS011;1482;51.398;7.128;2023-08-21T12:34:22;8.23;;;2.73;;
2944;SDS011;1482;51.398;7.128;2023-08-21T12:36:50;6.13;;;3.10;;
2944;SDS011;1482;51.398;7.128;2023-08-21T12:39:16;5.63;;;3.40;;
2944;SDS011;1482;51.398;7.128;2023-08-21T12:41:42;6.77;;;3.47;;
2944;SDS011;1482;51.398;7.128;2023-08-21T12:44:08;9.33;;;2.97;;
2944;SDS011;1482;51.398;7.128;2023-08-21T12:46:37;3.53;;;2.83;;
2944;SDS011;1482;51.398;7.128;2023-08-21T12:49:03;7.23;;;3.10;;
2944;SDS011;1482;51.398;7.128;2023-08-21T12:51:29;6.27;;;3.10;;
2944;SDS011;1482;51.398;7.128;2023-08-21T12:53:55;6.53;;;3.10;;
2944;SDS011;1482;51.398;7.128;2023-08-21T12:56:21;6.83;;;3.37;;
2944;SDS011;1482;51.398;7.128;2023-08-21T12:58:47;7.37;;;3.50;;
2944;SDS011;1482;51.398;7.128;2023-08-21T13:01:13;4.63;;;3.30;;
2944;SDS011;1482;51.398;7.128;2023-08-21T13:03:43;5.30;;;3.07;;
2944;SDS011;1482;51.398;7.128;2023-08-21T13:06:12;12.60;;;3.43;;
2944;SDS011;1482;51.398;7.128;2023-08-21T13:08:38;7.37;;;3.30;;
2944;SDS011;1482;51.398;7.128;2023-08-21T13:11:03;6.10;;;3.00;;
2944;SDS011;1482;51.398;7.128;2023-08-21T13:13:30;8.73;;;3.70;;
2944;SDS011;1482;51.398;7.128;2023-08-21T13:15:55;4.03;;;3.33;;
2944;SDS011;1482;51.398;7.128;2023-08-21T13:18:21;4.30;;;3.43;;
2944;SDS011;1482;51.398;7.128;2023-08-21T13:20:47;5.37;;;3.20;;
2944;SDS011;1482;51.398;7.128;2023-08-21T13:23:12;9.43;;;2.90;;
2944;SDS011;1482;51.398;7.128;2023-08-21T13:25:38;6.73;;;3.53;;
2944;SDS011;1482;51.398;7.128;2023-08-21T13:28:03;5.17;;;3.40;;
2944;SDS011;1482;51.398;7.128;2023-08-21T13:30:29;4.27;;;3.20;;
2944;SDS011;1482;51.398;7.128;2023-08-21T13:32:56;6.50;;;3.37;;
2944;SDS011;1482;51.398;7.128;2023-08-21T13:35:22;4.10;;;2.60;;
2944;SDS011;1482;51.398;7.128;2023-08-21T13:37:47;7.00;;;3.57;;
2944;SDS011;1482;51.398;7.128;2023-08-21T13:40:13;4.73;;;3.30;;
2944;SDS011;1482;51.398;7.128;2023-08-21T13:42:42;6.57;;;3.20;;
2944;SDS011;1482;51.398;7.128;2023-08-21T13:45:12;6.80;;;3.40;;
2944;SDS011;1482;51.398;7.128;2023-08-21T13:47:40;5.27;;;3.90;;
2944;SDS011;1482;51.398;7.128;2023-08-21T13:50:12;4.60;;;3.40;;
2944;SDS011;1482;51.398;7.128;2023-08-21T13:52:37;4.90;;;4.20;;
2944;SDS011;1482;51.398;7.128;2023-08-21T13:55:04;3.73;;;3.07;;
2944;SDS011;1482;51.398;7.128;2023-08-21T13:57:31;7.97;;;4.43;;
2944;SDS011;1482;51.398;7.128;2023-08-21T13:59:59;6.43;;;4.37;;
2944;SDS011;1482;51.398;7.128;2023-08-21T14:02:25;6.90;;;3.77;;
2944;SDS011;1482;51.398;7.128;2023-08-21T14:04:51;6.80;;;3.40;;
2944;SDS011;1482;51.398;7.128;2023-08-21T14:07:16;5.23;;;3.23;;
2944;SDS011;1482;51.398;7.128;2023-08-21T14:09:42;5.63;;;3.67;;
2944;SDS011;1482;51.398;7.128;2023-08-21T14:12:08;6.20;;;3.50;;
2944;SDS011;1482;51.398;7.128;2023-08-21T14:14:36;7.40;;;3.47;;
2944;SDS011;1482;51.398;7.128;2023-08-21T14:17:02;5.73;;;3.80;;
2944;SDS011;1482;51.398;7.128;2023-08-21T14:19:28;3.97;;;2.80;;
2944;SDS011;1482;51.398;7.128;2023-08-21T14:21:54;5.53;;;2.90;;
2944;SDS011;1482;51.398;7.128;2023-08-21T14:24:20;7.10;;;3.30;;
2944;SDS011;1482;51.398;7.128;2023-08-21T14:26:45;9.70;;;3.20;;
2944;SDS011;1482;51.398;7.128;2023-08-21T14:29:11;5.80;;;4.10;;
2944;SDS011;1482;51.398;7.128;2023-08-21T14:31:36;3.97;;;3.40;;
2944;SDS011;1482;51.398;7.128;2023-08-21T14:34:02;4.07;;;3.20;;
2944;SDS011;1482;51.398;7.128;2023-08-21T14:36:27;6.47;;;3.23;;
2944;SDS011;1482;51.398;7.128;2023-08-21T14:38:53;6.43;;;2.80;;
2944;SDS011;1482;51.398;7.128;2023-08-21T14:41:18;5.27;;;3.20;;
2944;SDS011;1482;51.398;7.128;2023-08-21T14:43:44;4.83;;;2.93;;
2944;SDS011;1482;51.398;7.128;2023-08-21T14:46:10;5.13;;;3.33;;
2944;SDS011;1482;51.398;7.128;2023-08-21T14:48:35;7.90;;;3.30;;
2944;SDS011;1482;51.398;7.128;2023-08-21T14:51:02;4.13;;;3.43;;
2944;SDS011;1482;51.398;7.128;2023-08-21T14:53:28;5.37;;;4.17;;
2944;SDS011;1482;51.398;7.128;2023-08-21T14:55:54;5.70;;;3.47;;
2944;SDS011;1482;51.398;7.128;2023-08-21T14:58:19;4.47;;;3.23;;
2944;SDS011;1482;51.398;7.128;2023-08-21T15:00:45;6.77;;;3.00;;
2944;SDS011;1482;51.398;7.128;2023-08-21T15:03:11;4.90;;;2.80;;
2944;SDS011;1482;51.398;7.128;2023-08-21T15:05:36;7.40;;;3.03;;
2944;SDS011;1482;51.398;7.128;2023-08-21T15:08:02;5.33;;;3.17;;
2944;SDS011;1482;51.398;7.128;2023-08-21T15:10:27;7.00;;;2.70;;
2944;SDS011;1482;51.398;7.128;2023-08-21T15:12:53;5.97;;;2.93;;
2944;SDS011;1482;51.398;7.128;2023-08-21T15:15:19;6.10;;;3.53;;
2944;SDS011;1482;51.398;7.128;2023-08-21T15:17:45;4.20;;;3.80;;
2944;SDS011;1482;51.398;7.128;2023-08-21T15:20:11;6.90;;;3.50;;
2944;SDS011;1482;51.398;7.128;2023-08-21T15:22:39;5.60;;;3.40;;
2944;SDS011;1482;51.398;7.128;2023-08-21T15:25:05;6.40;;;3.77;;
2944;SDS011;1482;51.398;7.128;2023-08-21T15:27:31;6.90;;;4.60;;
2944;SDS011;1482;51.398;7.128;2023-08-21T15:29:57;4.63;;;3.90;;
2944;SDS011;1482;51.398;7.128;2023-08-21T15:32:22;10.20;;;4.83;;